sensor_id;sensor_type;location;lat;lon;timestamp;P1;durP1;ratioP1;P2;durP2;ratioP2
3755;SDS011;1893;52.526;13.360;2022-12-07T00:01:31;17.37;;;9.30;;
3755;SDS011;1893;52.526;13.360;2022-12-07T00:03:59;18.10;;;9.00;;
3755;SDS011;1893;52.526;13.360;2022-12-07T00:06:29;16.77;;;7.40;;
3755;SDS011;1893;52.526;13.360;2022-12-07T00:08:56;16.60;;;7.77;;
3755;SDS011;1893;52.526;13.360;2022-12-07T00:11:22;22.37;;;8.80;;
3755;SDS011;1893;52.526;13.360;2022-12-07T00:13:58;17.87;;;8.50;;
3755;SDS011;1893;52.526;13.360;2022-12-07T00:16:28;17.77;;;8.50;;
3755;SDS011;1893;52.526;13.360;2022-12-07T00:18:55;15.77;;;8.30;;
3755;SDS011;1893;52.526;13.360;2022-12-07T00:21:22;17.30;;;7.80;;
3755;SDS011;1893;52.526;13.360;2022-12-07T00:23:55;13.43;;;7.57;;
3755;SDS011;1893;52.526;13.360;2022-12-07T00:26:23;17.43;;;8.47;;
3755;SDS011;1893;52.526;13.360;2022-12-07T00:28:54;14.43;;;8.10;;
3755;SDS011;1893;52.526;13.360;2022-12-07T00:31:22;13.43;;;7.87;;
3755;SDS011;1893;52.526;13.360;2022-12-07T00:33:49;20.00;;;9.27;;
3755;SDS011;1893;52.526;13.360;2022-12-07T00:36:16;15.53;;;8.00;;
3755;SDS011;1893;52.526;13.360;2022-12-07T00:38:44;16.23;;;7.97;;
3755;SDS011;1893;52.526;13.360;2022-12-07T00:41:16;11.83;;;7.13;;
3755;SDS011;1893;52.526;13.360;2022-12-07T00:43:47;19.10;;;9.50;;
3755;SDS011;1893;52.526;13.360;2022-12-07T00:46:14;13.77;;;7.33;;
3755;SDS011;1893;52.526;13.360;2022-12-07T00:48:40;13.53;;;7.57;;
3755;SDS011;1893;52.526;13.360;2022-12-07T00:51:06;16.97;;;9.70;;
3755;SDS011;1893;52.526;13.360;2022-12-07T00:53:36;14.60;;;6.80;;
3755;SDS011;1893;52.526;13.360;2022-12-07T00:56:07;14.43;;;8.30;;
3755;SDS011;1893;52.526;13.360;2022-12-07T00:58:40;13.87;;;8.90;;
3755;SDS011;1893;52.526;13.360;2022-12-07T01:01:07;14.13;;;8.40;;
3755;SDS011;1893;52.526;13.360;2022-12-07T01:03:33;12.97;;;7.83;;
3755;SDS011;1893;52.526;13.360;2022-12-07T01:06:00;13.90;;;7.17;;
3755;SDS011;1893;52.526;13.360;2022-12-07T01:08:26;14.67;;;7.67;;
3755;SDS011;1893;52.526;13.360;2022-12-07T01:11:26;13.60;;;7.63;;
3755;SDS011;1893;52.526;13.360;2022-12-07T01:13:46;14.47;;;7.90;;
3755;SDS011;1893;52.526;13.360;2022-12-07T01:16:15;10.90;;;6.63;;
3755;SDS011;1893;52.526;13.360;2022-12-07T01:18:41;13.00;;;7.23;;
3755;SDS011;1893;52.526;13.360;2022-12-07T01:21:11;10.40;;;6.70;;
3755;SDS011;1893;52.526;13.360;2022-12-07T01:23:39;13.00;;;7.37;;
3755;SDS011;1893;52.526;13.360;2022-12-07T01:26:06;11.73;;;6.30;;
3755;SDS011;1893;52.526;13.360;2022-12-07T01:28:34;12.50;;;7.30;;
3755;SDS011;1893;52.526;13.360;2022-12-07T01:33:29;9.57;;;5.33;;
3755;SDS011;1893;52.526;13.360;2022-12-07T01:36:41;13.33;;;6.70;;
3755;SDS011;1893;52.526;13.360;2022-12-07T01:38:56;9.37;;;5.60;;
3755;SDS011;1893;52.526;13.360;2022-12-07T01:41:25;10.18;;;5.82;;
3755;SDS011;1893;52.526;13.360;2022-12-07T01:44:08;9.00;;;5.10;;
3755;SDS011;1893;52.526;13.360;2022-12-07T01:46:40;10.30;;;5.40;;
3755;SDS011;1893;52.526;13.360;2022-12-07T01:49:08;10.63;;;4.83;;
3755;SDS011;1893;52.526;13.360;2022-12-07T01:51:38;9.77;;;5.00;;
3755;SDS011;1893;52.526;13.360;2022-12-07T01:54:07;6.67;;;4.63;;
3755;SDS011;1893;52.526;13.360;2022-12-07T01:56:34;5.50;;;4.93;;
3755;SDS011;1893;52.526;13.360;2022-12-07T01:59:02;6.93;;;4.93;;
3755;SDS011;1893;52.526;13.360;2022-12-07T02:01:28;7.97;;;5.30;;
3755;SDS011;1893;52.526;13.360;2022-12-07T02:03:53;9.90;;;5.70;;
3755;SDS011;1893;52.526;13.360;2022-12-07T02:06:21;7.53;;;4.77;;
3755;SDS011;1893;52.526;13.360;2022-12-07T02:08:49;7.57;;;4.30;;
3755;SDS011;1893;52.526;13.360;2022-12-07T02:11:15;6.40;;;4.80;;
3755;SDS011;1893;52.526;13.360;2022-12-07T02:13:41;9.20;;;4.93;;
3755;SDS011;1893;52.526;13.360;2022-12-07T02:21:51;6.63;;;3.93;;
3755;SDS011;1893;52.526;13.360;2022-12-07T02:24:45;8.63;;;5.20;;
3755;SDS011;1893;52.526;13.360;2022-12-07T02:32:43;9.10;;;4.70;;
3755;SDS011;1893;52.526;13.360;2022-12-07T02:35:20;10.43;;;4.97;;
3755;SDS011;1893;52.526;13.360;2022-12-07T02:40:38;9.03;;;4.83;;
3755;SDS011;1893;52.526;13.360;2022-12-07T02:45:41;8.00;;;5.00;;
3755;SDS011;1893;52.526;13.360;2022-12-07T02:48:08;13.70;;;5.90;;
3755;SDS011;1893;52.526;13.360;2022-12-07T02:50:36;9.03;;;5.90;;
3755;SDS011;1893;52.526;13.360;2022-12-07T02:53:02;8.70;;;5.57;;
3755;SDS011;1893;52.526;13.360;2022-12-07T02:55:29;11.70;;;5.63;;
3755;SDS011;1893;52.526;13.360;2022-12-07T03:00:51;10.57;;;6.77;;
3755;SDS011;1893;52.526;13.360;2022-12-07T03:03:29;9.85;;;6.18;;
3755;SDS011;1893;52.526;13.360;2022-12-07T03:06:04;11.80;;;6.53;;
3755;SDS011;1893;52.526;13.360;2022-12-07T03:08:42;9.53;;;6.37;;
3755;SDS011;1893;52.526;13.360;2022-12-07T03:16:30;11.70;;;6.50;;
3755;SDS011;1893;52.526;13.360;2022-12-07T03:19:07;12.10;;;6.90;;
3755;SDS011;1893;52.526;13.360;2022-12-07T03:21:40;12.30;;;7.60;;
3755;SDS011;1893;52.526;13.360;2022-12-07T03:24:14;10.70;;;6.07;;
3755;SDS011;1893;52.526;13.360;2022-12-07T03:26:47;15.43;;;8.17;;
3755;SDS011;1893;52.526;13.360;2022-12-07T03:29:20;15.20;;;8.32;;
3755;SDS011;1893;52.526;13.360;2022-12-07T03:31:54;16.47;;;7.80;;
3755;SDS011;1893;52.526;13.360;2022-12-07T03:34:30;12.97;;;8.30;;
3755;SDS011;1893;52.526;13.360;2022-12-07T03:37:05;14.33;;;8.50;;
3755;SDS011;1893;52.526;13.360;2022-12-07T03:39:56;19.20;;;8.43;;
3755;SDS011;1893;52.526;13.360;2022-12-07T03:42:26;12.13;;;7.18;;
3755;SDS011;1893;52.526;13.360;2022-12-07T03:44:53;14.70;;;8.80;;
3755;SDS011;1893;52.526;13.360;2022-12-07T03:47:26;15.52;;;8.23;;
3755;SDS011;1893;52.526;13.360;2022-12-07T03:50:21;17.25;;;8.50;;
3755;SDS011;1893;52.526;13.360;2022-12-07T03:53:18;13.37;;;7.50;;
3755;SDS011;1893;52.526;13.360;2022-12-07T03:55:51;21.57;;;8.97;;
3755;SDS011;1893;52.526;13.360;2022-12-07T03:58:20;22.10;;;9.37;;
3755;SDS011;1893;52.526;13.360;2022-12-07T04:00:48;18.83;;;8.63;;
3755;SDS011;1893;52.526;13.360;2022-12-07T04:03:14;18.57;;;9.83;;
3755;SDS011;1893;52.526;13.360;2022-12-07T04:05:40;15.83;;;8.17;;
3755;SDS011;1893;52.526;13.360;2022-12-07T04:08:07;19.10;;;9.97;;
3755;SDS011;1893;52.526;13.360;2022-12-07T04:10:32;18.37;;;8.77;;
3755;SDS011;1893;52.526;13.360;2022-12-07T04:12:58;19.50;;;9.10;;
3755;SDS011;1893;52.526;13.360;2022-12-07T04:15:24;17.50;;;9.47;;
3755;SDS011;1893;52.526;13.360;2022-12-07T04:17:50;19.93;;;10.83;;
3755;SDS011;1893;52.526;13.360;2022-12-07T04:20:16;17.93;;;9.40;;
3755;SDS011;1893;52.526;13.360;2022-12-07T04:22:41;24.90;;;9.63;;
3755;SDS011;1893;52.526;13.360;2022-12-07T04:25:07;19.23;;;10.20;;
3755;SDS011;1893;52.526;13.360;2022-12-07T04:27:33;14.60;;;8.70;;
3755;SDS011;1893;52.526;13.360;2022-12-07T04:29:59;22.73;;;11.30;;
3755;SDS011;1893;52.526;13.360;2022-12-07T04:32:24;29.50;;;11.80;;
3755;SDS011;1893;52.526;13.360;2022-12-07T04:34:50;26.20;;;11.40;;
3755;SDS011;1893;52.526;13.360;2022-12-07T04:37:16;21.83;;;10.30;;
3755;SDS011;1893;52.526;13.360;2022-12-07T04:39:42;24.23;;;12.17;;
3755;SDS011;1893;52.526;13.360;2022-12-07T04:42:09;23.83;;;11.60;;
3755;SDS011;1893;52.526;13.360;2022-12-07T04:44:35;24.57;;;12.67;;
3755;SDS011;1893;52.526;13.360;2022-12-07T04:47:01;30.57;;;13.03;;
3755;SDS011;1893;52.526;13.360;2022-12-07T04:49:26;27.53;;;12.40;;
3755;SDS011;1893;52.526;13.360;2022-12-07T04:51:52;28.73;;;14.17;;
3755;SDS011;1893;52.526;13.360;2022-12-07T04:54:18;24.40;;;11.10;;
3755;SDS011;1893;52.526;13.360;2022-12-07T04:56:44;30.90;;;14.97;;
3755;SDS011;1893;52.526;13.360;2022-12-07T04:59:10;29.40;;;14.10;;
3755;SDS011;1893;52.526;13.360;2022-12-07T05:01:37;26.65;;;12.98;;
3755;SDS011;1893;52.526;13.360;2022-12-07T05:04:03;33.03;;;15.30;;
3755;SDS011;1893;52.526;13.360;2022-12-07T05:06:29;31.23;;;14.40;;
3755;SDS011;1893;52.526;13.360;2022-12-07T05:08:54;34.20;;;15.20;;
3755;SDS011;1893;52.526;13.360;2022-12-07T05:11:20;39.33;;;18.13;;
3755;SDS011;1893;52.526;13.360;2022-12-07T05:14:05;41.00;;;17.23;;
3755;SDS011;1893;52.526;13.360;2022-12-07T05:16:37;38.53;;;17.60;;
3755;SDS011;1893;52.526;13.360;2022-12-07T05:19:03;40.70;;;16.60;;
3755;SDS011;1893;52.526;13.360;2022-12-07T05:21:30;42.53;;;17.20;;
3755;SDS011;1893;52.526;13.360;2022-12-07T05:23:55;38.80;;;16.07;;
3755;SDS011;1893;52.526;13.360;2022-12-07T05:26:21;42.23;;;19.77;;
3755;SDS011;1893;52.526;13.360;2022-12-07T05:28:51;38.63;;;17.10;;
3755;SDS011;1893;52.526;13.360;2022-12-07T05:31:17;41.40;;;17.47;;
3755;SDS011;1893;52.526;13.360;2022-12-07T05:33:43;38.93;;;17.80;;
3755;SDS011;1893;52.526;13.360;2022-12-07T05:36:09;43.50;;;16.77;;
3755;SDS011;1893;52.526;13.360;2022-12-07T05:38:34;38.00;;;17.97;;
3755;SDS011;1893;52.526;13.360;2022-12-07T05:41:04;40.93;;;17.80;;
3755;SDS011;1893;52.526;13.360;2022-12-07T05:43:32;36.80;;;17.70;;
3755;SDS011;1893;52.526;13.360;2022-12-07T05:45:58;41.47;;;16.80;;
3755;SDS011;1893;52.526;13.360;2022-12-07T05:48:24;38.77;;;16.27;;
3755;SDS011;1893;52.526;13.360;2022-12-07T05:50:50;49.97;;;19.77;;
3755;SDS011;1893;52.526;13.360;2022-12-07T05:53:16;39.13;;;18.17;;
3755;SDS011;1893;52.526;13.360;2022-12-07T05:55:43;43.40;;;20.00;;
3755;SDS011;1893;52.526;13.360;2022-12-07T05:58:09;41.30;;;19.07;;
3755;SDS011;1893;52.526;13.360;2022-12-07T06:00:56;42.67;;;18.40;;
3755;SDS011;1893;52.526;13.360;2022-12-07T06:03:22;43.17;;;19.73;;
3755;SDS011;1893;52.526;13.360;2022-12-07T06:05:48;40.20;;;18.13;;
3755;SDS011;1893;52.526;13.360;2022-12-07T06:08:13;50.17;;;21.47;;
3755;SDS011;1893;52.526;13.360;2022-12-07T06:10:40;41.13;;;18.67;;
3755;SDS011;1893;52.526;13.360;2022-12-07T06:13:06;37.43;;;17.43;;
3755;SDS011;1893;52.526;13.360;2022-12-07T06:15:32;44.17;;;19.13;;
3755;SDS011;1893;52.526;13.360;2022-12-07T06:18:00;46.33;;;20.20;;
3755;SDS011;1893;52.526;13.360;2022-12-07T06:20:26;49.07;;;20.83;;
3755;SDS011;1893;52.526;13.360;2022-12-07T06:22:52;52.17;;;19.77;;
3755;SDS011;1893;52.526;13.360;2022-12-07T06:25:17;37.93;;;16.73;;
3755;SDS011;1893;52.526;13.360;2022-12-07T06:27:43;39.40;;;17.80;;
3755;SDS011;1893;52.526;13.360;2022-12-07T06:30:08;41.67;;;17.47;;
3755;SDS011;1893;52.526;13.360;2022-12-07T06:32:35;36.67;;;17.50;;
3755;SDS011;1893;52.526;13.360;2022-12-07T06:35:01;28.27;;;14.70;;
3755;SDS011;1893;52.526;13.360;2022-12-07T06:37:28;37.93;;;16.23;;
3755;SDS011;1893;52.526;13.360;2022-12-07T06:39:53;38.90;;;16.80;;
3755;SDS011;1893;52.526;13.360;2022-12-07T06:42:19;30.20;;;14.17;;
3755;SDS011;1893;52.526;13.360;2022-12-07T06:44:44;37.03;;;16.07;;
3755;SDS011;1893;52.526;13.360;2022-12-07T06:47:10;39.63;;;17.97;;
3755;SDS011;1893;52.526;13.360;2022-12-07T06:49:36;35.70;;;17.73;;
3755;SDS011;1893;52.526;13.360;2022-12-07T06:52:02;40.10;;;17.27;;
3755;SDS011;1893;52.526;13.360;2022-12-07T06:54:27;38.47;;;18.03;;
3755;SDS011;1893;52.526;13.360;2022-12-07T06:56:55;42.40;;;17.80;;
3755;SDS011;1893;52.526;13.360;2022-12-07T06:59:20;45.00;;;19.97;;
3755;SDS011;1893;52.526;13.360;2022-12-07T07:01:46;44.27;;;20.90;;
3755;SDS011;1893;52.526;13.360;2022-12-07T07:04:12;45.17;;;19.70;;
3755;SDS011;1893;52.526;13.360;2022-12-07T07:06:37;43.57;;;20.00;;
3755;SDS011;1893;52.526;13.360;2022-12-07T07:09:03;41.80;;;19.27;;
3755;SDS011;1893;52.526;13.360;2022-12-07T07:11:28;45.70;;;19.57;;
3755;SDS011;1893;52.526;13.360;2022-12-07T07:13:54;37.00;;;17.47;;
3755;SDS011;1893;52.526;13.360;2022-12-07T07:16:22;42.67;;;18.17;;
3755;SDS011;1893;52.526;13.360;2022-12-07T07:18:48;39.27;;;17.53;;
3755;SDS011;1893;52.526;13.360;2022-12-07T07:21:13;39.90;;;17.80;;
3755;SDS011;1893;52.526;13.360;2022-12-07T07:23:39;49.27;;;20.23;;
3755;SDS011;1893;52.526;13.360;2022-12-07T07:26:04;37.27;;;18.33;;
3755;SDS011;1893;52.526;13.360;2022-12-07T07:28:30;34.27;;;16.37;;
3755;SDS011;1893;52.526;13.360;2022-12-07T07:30:55;36.80;;;18.03;;
3755;SDS011;1893;52.526;13.360;2022-12-07T07:33:21;33.90;;;17.20;;
3755;SDS011;1893;52.526;13.360;2022-12-07T07:35:47;32.50;;;15.90;;
3755;SDS011;1893;52.526;13.360;2022-12-07T07:38:12;34.13;;;15.47;;
3755;SDS011;1893;52.526;13.360;2022-12-07T07:40:38;30.50;;;14.77;;
3755;SDS011;1893;52.526;13.360;2022-12-07T07:43:03;33.93;;;14.70;;
3755;SDS011;1893;52.526;13.360;2022-12-07T07:45:29;33.70;;;14.40;;
3755;SDS011;1893;52.526;13.360;2022-12-07T07:47:54;27.17;;;14.03;;
3755;SDS011;1893;52.526;13.360;2022-12-07T07:50:21;32.90;;;14.87;;
3755;SDS011;1893;52.526;13.360;2022-12-07T07:52:47;27.73;;;13.43;;
3755;SDS011;1893;52.526;13.360;2022-12-07T07:55:13;26.73;;;12.50;;
3755;SDS011;1893;52.526;13.360;2022-12-07T07:57:39;20.87;;;12.67;;
3755;SDS011;1893;52.526;13.360;2022-12-07T08:00:09;26.30;;;12.20;;
3755;SDS011;1893;52.526;13.360;2022-12-07T08:02:36;20.53;;;12.03;;
3755;SDS011;1893;52.526;13.360;2022-12-07T08:05:02;23.27;;;11.83;;
3755;SDS011;1893;52.526;13.360;2022-12-07T08:07:28;22.80;;;10.93;;
3755;SDS011;1893;52.526;13.360;2022-12-07T08:09:53;17.37;;;11.17;;
3755;SDS011;1893;52.526;13.360;2022-12-07T08:12:19;24.03;;;11.67;;
3755;SDS011;1893;52.526;13.360;2022-12-07T08:14:45;26.80;;;11.37;;
3755;SDS011;1893;52.526;13.360;2022-12-07T08:17:10;18.27;;;9.40;;
3755;SDS011;1893;52.526;13.360;2022-12-07T08:19:37;21.37;;;9.20;;
3755;SDS011;1893;52.526;13.360;2022-12-07T08:22:03;23.80;;;8.17;;
3755;SDS011;1893;52.526;13.360;2022-12-07T08:24:28;16.03;;;9.13;;
3755;SDS011;1893;52.526;13.360;2022-12-07T08:26:54;15.17;;;8.40;;
3755;SDS011;1893;52.526;13.360;2022-12-07T08:29:19;13.70;;;7.17;;
3755;SDS011;1893;52.526;13.360;2022-12-07T08:31:45;12.33;;;6.30;;
3755;SDS011;1893;52.526;13.360;2022-12-07T08:34:11;16.93;;;6.30;;
3755;SDS011;1893;52.526;13.360;2022-12-07T08:36:37;8.43;;;5.73;;
3755;SDS011;1893;52.526;13.360;2022-12-07T08:39:03;9.23;;;6.13;;
3755;SDS011;1893;52.526;13.360;2022-12-07T08:41:29;5.00;;;4.33;;
3755;SDS011;1893;52.526;13.360;2022-12-07T08:43:55;8.47;;;4.97;;
3755;SDS011;1893;52.526;13.360;2022-12-07T08:46:24;8.43;;;4.20;;
3755;SDS011;1893;52.526;13.360;2022-12-07T08:48:55;4.47;;;3.37;;
3755;SDS011;1893;52.526;13.360;2022-12-07T08:51:26;5.37;;;3.60;;
3755;SDS011;1893;52.526;13.360;2022-12-07T08:53:52;5.67;;;3.37;;
3755;SDS011;1893;52.526;13.360;2022-12-07T08:56:19;10.37;;;2.90;;
3755;SDS011;1893;52.526;13.360;2022-12-07T08:58:46;3.50;;;2.60;;
3755;SDS011;1893;52.526;13.360;2022-12-07T09:01:12;6.87;;;3.00;;
3755;SDS011;1893;52.526;13.360;2022-12-07T09:03:37;2.20;;;2.03;;
3755;SDS011;1893;52.526;13.360;2022-12-07T09:06:03;2.23;;;2.03;;
3755;SDS011;1893;52.526;13.360;2022-12-07T09:08:37;2.13;;;1.83;;
3755;SDS011;1893;52.526;13.360;2022-12-07T09:11:07;4.00;;;2.33;;
3755;SDS011;1893;52.526;13.360;2022-12-07T09:13:33;3.83;;;1.80;;
3755;SDS011;1893;52.526;13.360;2022-12-07T09:15:58;2.47;;;2.27;;
3755;SDS011;1893;52.526;13.360;2022-12-07T09:18:24;3.67;;;1.97;;
3755;SDS011;1893;52.526;13.360;2022-12-07T09:20:50;2.33;;;2.13;;
3755;SDS011;1893;52.526;13.360;2022-12-07T09:23:15;1.83;;;1.60;;
3755;SDS011;1893;52.526;13.360;2022-12-07T09:25:42;6.37;;;1.97;;
3755;SDS011;1893;52.526;13.360;2022-12-07T09:28:07;2.17;;;1.30;;
3755;SDS011;1893;52.526;13.360;2022-12-07T09:30:33;3.20;;;1.87;;
3755;SDS011;1893;52.526;13.360;2022-12-07T09:32:59;2.87;;;2.13;;
3755;SDS011;1893;52.526;13.360;2022-12-07T09:35:25;2.40;;;1.83;;
3755;SDS011;1893;52.526;13.360;2022-12-07T09:37:51;4.20;;;1.83;;
3755;SDS011;1893;52.526;13.360;2022-12-07T09:40:17;6.37;;;2.33;;
3755;SDS011;1893;52.526;13.360;2022-12-07T09:42:46;5.77;;;1.80;;
3755;SDS011;1893;52.526;13.360;2022-12-07T09:45:15;3.40;;;2.33;;
3755;SDS011;1893;52.526;13.360;2022-12-07T09:47:44;3.40;;;1.77;;
3755;SDS011;1893;52.526;13.360;2022-12-07T09:50:19;3.70;;;1.83;;
3755;SDS011;1893;52.526;13.360;2022-12-07T09:52:47;1.30;;;1.20;;
3755;SDS011;1893;52.526;13.360;2022-12-07T09:55:24;3.33;;;1.33;;
3755;SDS011;1893;52.526;13.360;2022-12-07T09:57:52;1.73;;;1.63;;
3755;SDS011;1893;52.526;13.360;2022-12-07T10:00:20;2.70;;;1.50;;
3755;SDS011;1893;52.526;13.360;2022-12-07T10:02:57;4.13;;;1.30;;
3755;SDS011;1893;52.526;13.360;2022-12-07T10:05:35;2.43;;;1.50;;
3755;SDS011;1893;52.526;13.360;2022-12-07T10:08:13;2.23;;;2.10;;
3755;SDS011;1893;52.526;13.360;2022-12-07T10:10:43;2.03;;;1.93;;
3755;SDS011;1893;52.526;13.360;2022-12-07T10:13:10;2.77;;;1.30;;
3755;SDS011;1893;52.526;13.360;2022-12-07T10:15:54;2.00;;;1.80;;
3755;SDS011;1893;52.526;13.360;2022-12-07T10:23:28;2.67;;;1.37;;
3755;SDS011;1893;52.526;13.360;2022-12-07T10:25:54;12.87;;;1.73;;
3755;SDS011;1893;52.526;13.360;2022-12-07T10:28:20;2.70;;;2.40;;
3755;SDS011;1893;52.526;13.360;2022-12-07T10:30:57;6.70;;;4.50;;
3755;SDS011;1893;52.526;13.360;2022-12-07T10:33:36;3.13;;;1.93;;
3755;SDS011;1893;52.526;13.360;2022-12-07T10:38:59;2.43;;;2.23;;
3755;SDS011;1893;52.526;13.360;2022-12-07T10:41:25;2.50;;;2.17;;
3755;SDS011;1893;52.526;13.360;2022-12-07T10:43:52;2.70;;;1.90;;
3755;SDS011;1893;52.526;13.360;2022-12-07T10:46:28;3.60;;;1.87;;
3755;SDS011;1893;52.526;13.360;2022-12-07T11:00:36;4.37;;;2.77;;
3755;SDS011;1893;52.526;13.360;2022-12-07T11:11:55;5.27;;;2.93;;
3755;SDS011;1893;52.526;13.360;2022-12-07T11:17:45;6.97;;;3.73;;
3755;SDS011;1893;52.526;13.360;2022-12-07T11:26:19;7.23;;;4.10;;
3755;SDS011;1893;52.526;13.360;2022-12-07T11:37:41;12.83;;;4.43;;
3755;SDS011;1893;52.526;13.360;2022-12-07T11:45:37;8.57;;;4.40;;
3755;SDS011;1893;52.526;13.360;2022-12-07T11:48:12;6.13;;;3.83;;
3755;SDS011;1893;52.526;13.360;2022-12-07T11:50:48;6.30;;;4.70;;
3755;SDS011;1893;52.526;13.360;2022-12-07T11:53:20;6.97;;;3.60;;
3755;SDS011;1893;52.526;13.360;2022-12-07T11:55:56;4.57;;;3.50;;
3755;SDS011;1893;52.526;13.360;2022-12-07T11:58:42;3.20;;;2.83;;
3755;SDS011;1893;52.526;13.360;2022-12-07T12:01:26;5.80;;;2.80;;
3755;SDS011;1893;52.526;13.360;2022-12-07T12:06:53;6.47;;;3.80;;
3755;SDS011;1893;52.526;13.360;2022-12-07T12:09:29;6.47;;;2.53;;
3755;SDS011;1893;52.526;13.360;2022-12-07T12:12:05;5.73;;;3.43;;
3755;SDS011;1893;52.526;13.360;2022-12-07T12:22:48;7.03;;;4.57;;
3755;SDS011;1893;52.526;13.360;2022-12-07T12:25:22;9.37;;;4.40;;
3755;SDS011;1893;52.526;13.360;2022-12-07T12:27:57;8.07;;;4.40;;
3755;SDS011;1893;52.526;13.360;2022-12-07T12:30:25;7.00;;;4.43;;
3755;SDS011;1893;52.526;13.360;2022-12-07T12:33:04;7.00;;;2.90;;
3755;SDS011;1893;52.526;13.360;2022-12-07T12:35:44;5.00;;;3.30;;
3755;SDS011;1893;52.526;13.360;2022-12-07T12:38:24;7.40;;;2.50;;
3755;SDS011;1893;52.526;13.360;2022-12-07T12:40:50;5.27;;;2.70;;
3755;SDS011;1893;52.526;13.360;2022-12-07T12:51:45;1.80;;;1.70;;
3755;SDS011;1893;52.526;13.360;2022-12-07T12:57:17;3.97;;;2.13;;
3755;SDS011;1893;52.526;13.360;2022-12-07T13:03:19;3.77;;;1.90;;
3755;SDS011;1893;52.526;13.360;2022-12-07T13:05:17;5.80;;;2.80;;
3755;SDS011;1893;52.526;13.360;2022-12-07T13:20:51;2.63;;;1.80;;
3755;SDS011;1893;52.526;13.360;2022-12-07T13:31:50;3.40;;;1.60;;
3755;SDS011;1893;52.526;13.360;2022-12-07T13:34:32;3.53;;;1.83;;
3755;SDS011;1893;52.526;13.360;2022-12-07T13:37:12;5.47;;;1.93;;
3755;SDS011;1893;52.526;13.360;2022-12-07T13:39:45;2.97;;;2.07;;
3755;SDS011;1893;52.526;13.360;2022-12-07T13:42:22;5.83;;;2.03;;
3755;SDS011;1893;52.526;13.360;2022-12-07T13:44:51;6.93;;;2.47;;
3755;SDS011;1893;52.526;13.360;2022-12-07T13:47:20;6.83;;;1.90;;
3755;SDS011;1893;52.526;13.360;2022-12-07T13:49:51;4.07;;;2.27;;
3755;SDS011;1893;52.526;13.360;2022-12-07T13:54:55;2.73;;;2.43;;
3755;SDS011;1893;52.526;13.360;2022-12-07T13:57:27;2.90;;;2.13;;
3755;SDS011;1893;52.526;13.360;2022-12-07T13:59:55;4.80;;;2.00;;
3755;SDS011;1893;52.526;13.360;2022-12-07T14:07:57;2.07;;;1.87;;
3755;SDS011;1893;52.526;13.360;2022-12-07T14:10:31;5.77;;;1.60;;
3755;SDS011;1893;52.526;13.360;2022-12-07T14:12:59;2.80;;;1.70;;
3755;SDS011;1893;52.526;13.360;2022-12-07T14:15:32;3.23;;;1.77;;
3755;SDS011;1893;52.526;13.360;2022-12-07T14:18:00;6.17;;;1.70;;
3755;SDS011;1893;52.526;13.360;2022-12-07T14:22:56;5.53;;;2.30;;
3755;SDS011;1893;52.526;13.360;2022-12-07T14:25:25;4.20;;;2.30;;
3755;SDS011;1893;52.526;13.360;2022-12-07T14:30:24;7.30;;;1.97;;
3755;SDS011;1893;52.526;13.360;2022-12-07T14:32:54;10.17;;;2.53;;
3755;SDS011;1893;52.526;13.360;2022-12-07T14:35:27;5.07;;;2.00;;
3755;SDS011;1893;52.526;13.360;2022-12-07T14:37:54;7.53;;;2.40;;
3755;SDS011;1893;52.526;13.360;2022-12-07T14:40:21;4.83;;;2.10;;
3755;SDS011;1893;52.526;13.360;2022-12-07T14:42:49;2.33;;;1.70;;
3755;SDS011;1893;52.526;13.360;2022-12-07T14:45:19;9.13;;;2.30;;
3755;SDS011;1893;52.526;13.360;2022-12-07T14:47:46;2.97;;;2.67;;
3755;SDS011;1893;52.526;13.360;2022-12-07T14:50:13;5.33;;;2.03;;
3755;SDS011;1893;52.526;13.360;2022-12-07T14:52:40;5.27;;;1.57;;
3755;SDS011;1893;52.526;13.360;2022-12-07T14:55:12;5.90;;;2.07;;
3755;SDS011;1893;52.526;13.360;2022-12-07T14:57:41;6.37;;;2.30;;
3755;SDS011;1893;52.526;13.360;2022-12-07T15:00:08;6.30;;;1.60;;
3755;SDS011;1893;52.526;13.360;2022-12-07T15:02:38;3.63;;;1.77;;
3755;SDS011;1893;52.526;13.360;2022-12-07T15:05:04;5.90;;;1.90;;
3755;SDS011;1893;52.526;13.360;2022-12-07T15:07:29;6.47;;;2.57;;
3755;SDS011;1893;52.526;13.360;2022-12-07T15:09:55;7.73;;;1.70;;
3755;SDS011;1893;52.526;13.360;2022-12-07T15:12:20;8.17;;;2.33;;
3755;SDS011;1893;52.526;13.360;2022-12-07T15:14:46;6.13;;;2.27;;
3755;SDS011;1893;52.526;13.360;2022-12-07T15:17:12;11.87;;;2.70;;
3755;SDS011;1893;52.526;13.360;2022-12-07T15:19:38;4.37;;;1.53;;
3755;SDS011;1893;52.526;13.360;2022-12-07T15:22:03;2.80;;;2.00;;
3755;SDS011;1893;52.526;13.360;2022-12-07T15:24:29;5.90;;;1.87;;
3755;SDS011;1893;52.526;13.360;2022-12-07T15:26:55;6.70;;;2.20;;
3755;SDS011;1893;52.526;13.360;2022-12-07T15:29:20;5.17;;;1.83;;
3755;SDS011;1893;52.526;13.360;2022-12-07T15:31:47;5.93;;;1.83;;
3755;SDS011;1893;52.526;13.360;2022-12-07T15:34:14;5.03;;;1.50;;
3755;SDS011;1893;52.526;13.360;2022-12-07T15:36:39;2.73;;;2.03;;
3755;SDS011;1893;52.526;13.360;2022-12-07T15:39:05;5.80;;;1.67;;
3755;SDS011;1893;52.526;13.360;2022-12-07T15:41:31;5.97;;;1.83;;
3755;SDS011;1893;52.526;13.360;2022-12-07T15:43:56;4.53;;;1.60;;
3755;SDS011;1893;52.526;13.360;2022-12-07T15:46:41;2.60;;;1.60;;
3755;SDS011;1893;52.526;13.360;2022-12-07T15:49:11;7.70;;;2.13;;
3755;SDS011;1893;52.526;13.360;2022-12-07T15:51:39;4.30;;;1.80;;
3755;SDS011;1893;52.526;13.360;2022-12-07T15:54:05;7.73;;;2.37;;
3755;SDS011;1893;52.526;13.360;2022-12-07T15:56:31;2.47;;;2.10;;
3755;SDS011;1893;52.526;13.360;2022-12-07T15:58:56;8.00;;;2.37;;
3755;SDS011;1893;52.526;13.360;2022-12-07T16:01:22;5.90;;;3.13;;
3755;SDS011;1893;52.526;13.360;2022-12-07T16:03:48;6.07;;;2.20;;
3755;SDS011;1893;52.526;13.360;2022-12-07T16:06:17;2.70;;;2.20;;
3755;SDS011;1893;52.526;13.360;2022-12-07T16:08:46;7.90;;;2.80;;
3755;SDS011;1893;52.526;13.360;2022-12-07T16:11:12;3.47;;;2.00;;
3755;SDS011;1893;52.526;13.360;2022-12-07T16:13:38;3.40;;;2.27;;
3755;SDS011;1893;52.526;13.360;2022-12-07T16:16:05;6.90;;;2.23;;
3755;SDS011;1893;52.526;13.360;2022-12-07T16:18:32;8.13;;;1.87;;
3755;SDS011;1893;52.526;13.360;2022-12-07T16:20:58;5.07;;;1.97;;
3755;SDS011;1893;52.526;13.360;2022-12-07T16:23:24;4.40;;;2.27;;
3755;SDS011;1893;52.526;13.360;2022-12-07T16:25:50;7.63;;;2.20;;
3755;SDS011;1893;52.526;13.360;2022-12-07T16:28:15;4.20;;;1.97;;
3755;SDS011;1893;52.526;13.360;2022-12-07T16:30:41;2.37;;;1.80;;
3755;SDS011;1893;52.526;13.360;2022-12-07T16:33:06;12.83;;;3.20;;
3755;SDS011;1893;52.526;13.360;2022-12-07T16:35:32;3.77;;;2.47;;
3755;SDS011;1893;52.526;13.360;2022-12-07T16:37:57;5.23;;;3.00;;
3755;SDS011;1893;52.526;13.360;2022-12-07T16:40:23;7.67;;;2.30;;
3755;SDS011;1893;52.526;13.360;2022-12-07T16:42:49;5.67;;;2.23;;
3755;SDS011;1893;52.526;13.360;2022-12-07T16:45:14;4.17;;;2.43;;
3755;SDS011;1893;52.526;13.360;2022-12-07T16:47:40;6.80;;;2.80;;
3755;SDS011;1893;52.526;13.360;2022-12-07T16:50:06;4.37;;;2.63;;
3755;SDS011;1893;52.526;13.360;2022-12-07T16:52:32;5.60;;;2.27;;
3755;SDS011;1893;52.526;13.360;2022-12-07T16:54:58;4.50;;;2.40;;
3755;SDS011;1893;52.526;13.360;2022-12-07T16:57:24;11.50;;;3.37;;
3755;SDS011;1893;52.526;13.360;2022-12-07T16:59:53;4.53;;;2.90;;
3755;SDS011;1893;52.526;13.360;2022-12-07T17:02:19;5.33;;;2.77;;
3755;SDS011;1893;52.526;13.360;2022-12-07T17:04:45;7.30;;;2.93;;
3755;SDS011;1893;52.526;13.360;2022-12-07T17:07:10;12.87;;;2.87;;
3755;SDS011;1893;52.526;13.360;2022-12-07T17:09:37;10.10;;;3.10;;
3755;SDS011;1893;52.526;13.360;2022-12-07T17:12:02;4.03;;;2.30;;
3755;SDS011;1893;52.526;13.360;2022-12-07T17:14:30;7.70;;;2.30;;
3755;SDS011;1893;52.526;13.360;2022-12-07T17:17:14;4.20;;;2.40;;
3755;SDS011;1893;52.526;13.360;2022-12-07T17:19:40;4.50;;;2.40;;